sensor_id;sensor_type;location;lat;lon;timestamp;temperature;humidity
46364;DHT22;32071;49.036;9.344;2023-04-25T00:02:01;8.30;99.90
46364;DHT22;32071;49.036;9.344;2023-04-25T00:04:28;8.30;99.90
46364;DHT22;32071;49.036;9.344;2023-04-25T00:06:55;8.40;99.90
46364;DHT22;32071;49.036;9.344;2023-04-25T00:09:21;8.40;99.90
46364;DHT22;32071;49.036;9.344;2023-04-25T00:11:47;8.50;99.90
46364;DHT22;32071;49.036;9.344;2023-04-25T00:14:13;8.60;99.90
46364;DHT22;32071;49.036;9.344;2023-04-25T00:16:38;8.60;99.90
46364;DHT22;32071;49.036;9.344;2023-04-25T00:19:06;8.70;99.90
46364;DHT22;32071;49.036;9.344;2023-04-25T00:21:32;8.70;99.90
46364;DHT22;32071;49.036;9.344;2023-04-25T00:23:58;8.70;99.90
46364;DHT22;32071;49.036;9.344;2023-04-25T00:26:24;8.70;99.90
46364;DHT22;32071;49.036;9.344;2023-04-25T00:28:50;8.70;99.90
46364;DHT22;32071;49.036;9.344;2023-04-25T00:31:16;8.60;99.90
46364;DHT22;32071;49.036;9.344;2023-04-25T00:33:41;8.60;99.90
46364;DHT22;32071;49.036;9.344;2023-04-25T00:36:07;8.70;99.90
46364;DHT22;32071;49.036;9.344;2023-04-25T00:38:33;8.70;99.90
46364;DHT22;32071;49.036;9.344;2023-04-25T00:40:58;8.70;99.90
46364;DHT22;32071;49.036;9.344;2023-04-25T00:43:26;8.70;99.90
46364;DHT22;32071;49.036;9.344;2023-04-25T00:45:52;8.70;99.90
46364;DHT22;32071;49.036;9.344;2023-04-25T00:48:18;8.70;99.90
46364;DHT22;32071;49.036;9.344;2023-04-25T00:50:53;8.60;99.90
46364;DHT22;32071;49.036;9.344;2023-04-25T00:53:22;8.60;99.90
46364;DHT22;32071;49.036;9.344;2023-04-25T00:55:49;8.50;99.90
46364;DHT22;32071;49.036;9.344;2023-04-25T00:58:17;8.50;99.90
46364;DHT22;32071;49.036;9.344;2023-04-25T01:00:44;8.40;99.90
46364;DHT22;32071;49.036;9.344;2023-04-25T01:03:10;8.40;99.90
46364;DHT22;32071;49.036;9.344;2023-04-25T01:05:36;8.30;99.90
46364;DHT22;32071;49.036;9.344;2023-04-25T01:08:01;8.30;99.90
46364;DHT22;32071;49.036;9.344;2023-04-25T01:10:27;8.20;99.90
46364;DHT22;32071;49.036;9.344;2023-04-25T01:12:53;8.10;99.90
46364;DHT22;32071;49.036;9.344;2023-04-25T01:15:18;8.00;99.90
46364;DHT22;32071;49.036;9.344;2023-04-25T01:17:44;8.00;99.90
46364;DHT22;32071;49.036;9.344;2023-04-25T01:20:11;7.90;99.90
46364;DHT22;32071;49.036;9.344;2023-04-25T01:22:37;7.90;99.90
46364;DHT22;32071;49.036;9.344;2023-04-25T01:25:03;7.90;99.90
46364;DHT22;32071;49.036;9.344;2023-04-25T01:27:29;7.90;99.90
46364;DHT22;32071;49.036;9.344;2023-04-25T01:29:56;7.90;99.90
46364;DHT22;32071;49.036;9.344;2023-04-25T01:32:22;7.90;99.90
46364;DHT22;32071;49.036;9.344;2023-04-25T01:34:48;7.90;99.90
46364;DHT22;32071;49.036;9.344;2023-04-25T01:37:14;7.90;99.90
46364;DHT22;32071;49.036;9.344;2023-04-25T01:39:41;7.90;99.90
46364;DHT22;32071;49.036;9.344;2023-04-25T01:42:07;7.90;99.90
46364;DHT22;32071;49.036;9.344;2023-04-25T01:44:33;7.90;99.90
46364;DHT22;32071;49.036;9.344;2023-04-25T01:46:58;8.00;99.90
46364;DHT22;32071;49.036;9.344;2023-04-25T01:49:24;8.00;99.90
46364;DHT22;32071;49.036;9.344;2023-04-25T01:51:49;8.00;99.90
46364;DHT22;32071;49.036;9.344;2023-04-25T01:54:15;8.10;99.90
46364;DHT22;32071;49.036;9.344;2023-04-25T01:56:41;8.10;99.90
46364;DHT22;32071;49.036;9.344;2023-04-25T01:59:06;8.10;99.90
46364;DHT22;32071;49.036;9.344;2023-04-25T02:01:32;8.20;99.90
46364;DHT22;32071;49.036;9.344;2023-04-25T02:03:58;8.20;99.90
46364;DHT22;32071;49.036;9.344;2023-04-25T02:06:23;8.30;99.90
46364;DHT22;32071;49.036;9.344;2023-04-25T02:08:49;8.30;99.90
46364;DHT22;32071;49.036;9.344;2023-04-25T02:11:15;8.30;99.90
46364;DHT22;32071;49.036;9.344;2023-04-25T02:13:41;8.20;99.90
46364;DHT22;32071;49.036;9.344;2023-04-25T02:16:06;8.20;99.90
46364;DHT22;32071;49.036;9.344;2023-04-25T02:18:32;8.20;99.90
46364;DHT22;32071;49.036;9.344;2023-04-25T02:20:59;8.10;99.90
46364;DHT22;32071;49.036;9.344;2023-04-25T02:23:25;8.10;99.90
46364;DHT22;32071;49.036;9.344;2023-04-25T02:25:51;8.10;99.90
46364;DHT22;32071;49.036;9.344;2023-04-25T02:28:17;8.00;99.90
46364;DHT22;32071;49.036;9.344;2023-04-25T02:30:42;7.90;99.90
46364;DHT22;32071;49.036;9.344;2023-04-25T02:33:08;7.80;99.90
46364;DHT22;32071;49.036;9.344;2023-04-25T02:35:33;7.80;99.90
46364;DHT22;32071;49.036;9.344;2023-04-25T02:37:59;7.70;99.90
46364;DHT22;32071;49.036;9.344;2023-04-25T02:40:25;7.70;99.90
46364;DHT22;32071;49.036;9.344;2023-04-25T02:42:50;7.80;99.90
46364;DHT22;32071;49.036;9.344;2023-04-25T02:45:16;7.80;99.90
46364;DHT22;32071;49.036;9.344;2023-04-25T02:47:42;7.90;99.90
46364;DHT22;32071;49.036;9.344;2023-04-25T02:50:08;7.90;99.90
46364;DHT22;32071;49.036;9.344;2023-04-25T02:52:33;7.90;99.90
46364;DHT22;32071;49.036;9.344;2023-04-25T02:54:59;8.00;99.90
46364;DHT22;32071;49.036;9.344;2023-04-25T02:57:24;8.00;99.90
46364;DHT22;32071;49.036;9.344;2023-04-25T02:59:50;8.10;99.90
46364;DHT22;32071;49.036;9.344;2023-04-25T03:02:15;8.10;99.90
46364;DHT22;32071;49.036;9.344;2023-04-25T03:04:41;8.10;99.90
46364;DHT22;32071;49.036;9.344;2023-04-25T03:07:07;8.10;99.90
46364;DHT22;32071;49.036;9.344;2023-04-25T03:09:32;8.10;99.90
46364;DHT22;32071;49.036;9.344;2023-04-25T03:11:58;8.10;99.90
46364;DHT22;32071;49.036;9.344;2023-04-25T03:14:24;8.10;99.90
46364;DHT22;32071;49.036;9.344;2023-04-25T03:16:49;8.10;99.90
46364;DHT22;32071;49.036;9.344;2023-04-25T03:19:15;8.10;99.90
46364;DHT22;32071;49.036;9.344;2023-04-25T03:21:44;8.10;99.90
46364;DHT22;32071;49.036;9.344;2023-04-25T03:24:10;8.10;99.90
46364;DHT22;32071;49.036;9.344;2023-04-25T03:26:37;8.10;99.90
46364;DHT22;32071;49.036;9.344;2023-04-25T03:29:02;8.10;99.90
46364;DHT22;32071;49.036;9.344;2023-04-25T03:31:28;8.10;99.90
46364;DHT22;32071;49.036;9.344;2023-04-25T03:33:53;8.10;99.90
46364;DHT22;32071;49.036;9.344;2023-04-25T03:36:19;8.10;99.90
46364;DHT22;32071;49.036;9.344;2023-04-25T03:38:44;8.10;99.90
46364;DHT22;32071;49.036;9.344;2023-04-25T03:41:10;8.10;99.90
46364;DHT22;32071;49.036;9.344;2023-04-25T03:43:36;8.10;99.90
46364;DHT22;32071;49.036;9.344;2023-04-25T03:46:01;8.20;99.90
46364;DHT22;32071;49.036;9.344;2023-04-25T03:48:27;8.10;99.90
46364;DHT22;32071;49.036;9.344;2023-04-25T03:50:53;8.20;99.90
46364;DHT22;32071;49.036;9.344;2023-04-25T03:53:19;8.10;99.90
46364;DHT22;32071;49.036;9.344;2023-04-25T03:55:45;8.10;99.90
46364;DHT22;32071;49.036;9.344;2023-04-25T03:58:10;8.20;99.90
46364;DHT22;32071;49.036;9.344;2023-04-25T04:00:36;8.20;99.90
46364;DHT22;32071;49.036;9.344;2023-04-25T04:03:02;8.20;99.90
46364;DHT22;32071;49.036;9.344;2023-04-25T04:05:27;8.20;99.90
46364;DHT22;32071;49.036;9.344;2023-04-25T04:07:54;8.20;99.90
46364;DHT22;32071;49.036;9.344;2023-04-25T04:10:19;8.20;99.90
46364;DHT22;32071;49.036;9.344;2023-04-25T04:12:45;8.20;99.90
46364;DHT22;32071;49.036;9.344;2023-04-25T04:15:11;8.20;99.90
46364;DHT22;32071;49.036;9.344;2023-04-25T04:17:37;8.20;99.90
46364;DHT22;32071;49.036;9.344;2023-04-25T04:20:03;8.20;99.90
46364;DHT22;32071;49.036;9.344;2023-04-25T04:22:29;8.20;99.90
46364;DHT22;32071;49.036;9.344;2023-04-25T04:24:55;8.10;99.90
46364;DHT22;32071;49.036;9.344;2023-04-25T04:27:22;8.20;99.90
46364;DHT22;32071;49.036;9.344;2023-04-25T04:29:49;8.20;99.90
46364;DHT22;32071;49.036;9.344;2023-04-25T04:32:15;8.20;99.90
46364;DHT22;32071;49.036;9.344;2023-04-25T04:34:41;8.20;99.90
46364;DHT22;32071;49.036;9.344;2023-04-25T04:37:07;8.30;99.90
46364;DHT22;32071;49.036;9.344;2023-04-25T04:39:36;8.30;99.90
46364;DHT22;32071;49.036;9.344;2023-04-25T04:42:02;8.40;99.90
46364;DHT22;32071;49.036;9.344;2023-04-25T04:44:29;8.40;99.90
46364;DHT22;32071;49.036;9.344;2023-04-25T04:46:58;8.40;99.90
46364;DHT22;32071;49.036;9.344;2023-04-25T04:49:24;8.40;99.90
46364;DHT22;32071;49.036;9.344;2023-04-25T04:51:49;8.40;99.90
46364;DHT22;32071;49.036;9.344;2023-04-25T04:54:15;8.40;99.90
46364;DHT22;32071;49.036;9.344;2023-04-25T04:56:40;8.40;99.90
46364;DHT22;32071;49.036;9.344;2023-04-25T04:59:07;8.40;99.90
46364;DHT22;32071;49.036;9.344;2023-04-25T05:01:32;8.50;99.90
46364;DHT22;32071;49.036;9.344;2023-04-25T05:04:00;8.50;99.90
46364;DHT22;32071;49.036;9.344;2023-04-25T05:06:27;8.50;99.90
46364;DHT22;32071;49.036;9.344;2023-04-25T05:08:54;8.50;99.90
46364;DHT22;32071;49.036;9.344;2023-04-25T05:11:19;8.50;99.90
46364;DHT22;32071;49.036;9.344;2023-04-25T05:13:46;8.40;99.90
46364;DHT22;32071;49.036;9.344;2023-04-25T05:16:12;8.30;99.90
46364;DHT22;32071;49.036;9.344;2023-04-25T05:18:39;8.30;99.90
46364;DHT22;32071;49.036;9.344;2023-04-25T05:21:05;8.30;99.90
46364;DHT22;32071;49.036;9.344;2023-04-25T05:23:32;8.40;99.90
46364;DHT22;32071;49.036;9.344;2023-04-25T05:25:58;8.30;99.90
46364;DHT22;32071;49.036;9.344;2023-04-25T05:28:23;8.30;99.90
46364;DHT22;32071;49.036;9.344;2023-04-25T05:30:49;8.30;99.90
46364;DHT22;32071;49.036;9.344;2023-04-25T05:33:15;8.20;99.90
46364;DHT22;32071;49.036;9.344;2023-04-25T05:35:41;8.20;99.90
46364;DHT22;32071;49.036;9.344;2023-04-25T05:38:06;8.20;99.90
46364;DHT22;32071;49.036;9.344;2023-04-25T05:40:32;8.20;99.90
46364;DHT22;32071;49.036;9.344;2023-04-25T05:42:58;8.30;99.90
46364;DHT22;32071;49.036;9.344;2023-04-25T05:45:24;8.30;99.90
46364;DHT22;32071;49.036;9.344;2023-04-25T05:47:50;8.30;99.90
46364;DHT22;32071;49.036;9.344;2023-04-25T05:50:15;8.40;99.90
46364;DHT22;32071;49.036;9.344;2023-04-25T05:52:41;8.40;99.90
46364;DHT22;32071;49.036;9.344;2023-04-25T05:55:07;8.40;99.90
46364;DHT22;32071;49.036;9.344;2023-04-25T05:57:32;8.40;99.90
46364;DHT22;32071;49.036;9.344;2023-04-25T05:59:58;8.50;99.90
46364;DHT22;32071;49.036;9.344;2023-04-25T06:02:24;8.60;99.90
46364;DHT22;32071;49.036;9.344;2023-04-25T06:04:50;8.70;99.90
46364;DHT22;32071;49.036;9.344;2023-04-25T06:07:16;8.70;99.90
46364;DHT22;32071;49.036;9.344;2023-04-25T06:09:43;8.80;99.90
46364;DHT22;32071;49.036;9.344;2023-04-25T06:12:09;8.90;99.90
46364;DHT22;32071;49.036;9.344;2023-04-25T06:14:34;9.10;99.90
46364;DHT22;32071;49.036;9.344;2023-04-25T06:17:00;9.20;99.90
46364;DHT22;32071;49.036;9.344;2023-04-25T06:19:32;9.40;99.90
46364;DHT22;32071;49.036;9.344;2023-04-25T06:21:58;9.50;99.90
46364;DHT22;32071;49.036;9.344;2023-04-25T06:24:23;9.30;99.90
46364;DHT22;32071;49.036;9.344;2023-04-25T06:26:49;9.20;99.90
46364;DHT22;32071;49.036;9.344;2023-04-25T06:29:14;9.20;99.90
46364;DHT22;32071;49.036;9.344;2023-04-25T06:31:40;9.10;99.90
46364;DHT22;32071;49.036;9.344;2023-04-25T06:34:05;9.10;99.90
46364;DHT22;32071;49.036;9.344;2023-04-25T06:36:31;9.10;99.90
46364;DHT22;32071;49.036;9.344;2023-04-25T06:38:57;9.20;99.90
46364;DHT22;32071;49.036;9.344;2023-04-25T06:41:22;9.20;99.90
46364;DHT22;32071;49.036;9.344;2023-04-25T06:43:48;9.40;99.90
46364;DHT22;32071;49.036;9.344;2023-04-25T06:46:13;9.40;99.90
46364;DHT22;32071;49.036;9.344;2023-04-25T06:48:39;9.50;99.90
46364;DHT22;32071;49.036;9.344;2023-04-25T06:51:04;9.50;99.90
46364;DHT22;32071;49.036;9.344;2023-04-25T06:53:30;9.50;99.90
46364;DHT22;32071;49.036;9.344;2023-04-25T06:55:56;9.60;99.90
46364;DHT22;32071;49.036;9.344;2023-04-25T06:58:21;9.70;99.90
46364;DHT22;32071;49.036;9.344;2023-04-25T07:00:47;9.80;99.90
46364;DHT22;32071;49.036;9.344;2023-04-25T07:03:13;9.80;99.90
46364;DHT22;32071;49.036;9.344;2023-04-25T07:05:38;9.80;99.90
46364;DHT22;32071;49.036;9.344;2023-04-25T07:08:04;9.70;99.90
46364;DHT22;32071;49.036;9.344;2023-04-25T07:10:30;9.60;99.90
46364;DHT22;32071;49.036;9.344;2023-04-25T07:12:55;9.50;99.90
46364;DHT22;32071;49.036;9.344;2023-04-25T07:15:21;9.30;99.90
46364;DHT22;32071;49.036;9.344;2023-04-25T07:17:46;9.30;99.90
46364;DHT22;32071;49.036;9.344;2023-04-25T07:20:12;9.30;99.90
46364;DHT22;32071;49.036;9.344;2023-04-25T07:22:38;9.20;99.90
46364;DHT22;32071;49.036;9.344;2023-04-25T07:25:03;9.10;99.90
46364;DHT22;32071;49.036;9.344;2023-04-25T07:27:30;9.10;99.90
46364;DHT22;32071;49.036;9.344;2023-04-25T07:29:55;9.10;99.90
46364;DHT22;32071;49.036;9.344;2023-04-25T07:32:21;9.10;99.90
46364;DHT22;32071;49.036;9.344;2023-04-25T07:34:46;9.10;99.90
46364;DHT22;32071;49.036;9.344;2023-04-25T07:37:12;9.20;99.90
46364;DHT22;32071;49.036;9.344;2023-04-25T07:39:39;9.30;99.90
46364;DHT22;32071;49.036;9.344;2023-04-25T07:42:05;9.40;99.90
46364;DHT22;32071;49.036;9.344;2023-04-25T07:44:33;9.50;99.90
46364;DHT22;32071;49.036;9.344;2023-04-25T07:47:04;9.60;99.90
46364;DHT22;32071;49.036;9.344;2023-04-25T07:49:35;9.60;99.90
46364;DHT22;32071;49.036;9.344;2023-04-25T07:52:02;9.60;99.90
46364;DHT22;32071;49.036;9.344;2023-04-25T07:54:28;9.70;99.90
46364;DHT22;32071;49.036;9.344;2023-04-25T07:56:53;9.70;99.90
46364;DHT22;32071;49.036;9.344;2023-04-25T07:59:19;9.70;99.90
46364;DHT22;32071;49.036;9.344;2023-04-25T08:01:45;9.70;99.90
46364;DHT22;32071;49.036;9.344;2023-04-25T08:04:10;9.80;99.90
46364;DHT22;32071;49.036;9.344;2023-04-25T08:06:36;9.80;99.90
46364;DHT22;32071;49.036;9.344;2023-04-25T08:09:02;9.90;99.90
46364;DHT22;32071;49.036;9.344;2023-04-25T08:11:28;9.90;99.90
46364;DHT22;32071;49.036;9.344;2023-04-25T08:13:54;10.00;99.90
46364;DHT22;32071;49.036;9.344;2023-04-25T08:16:19;10.10;99.90
46364;DHT22;32071;49.036;9.344;2023-04-25T08:18:45;10.10;99.90
46364;DHT22;32071;49.036;9.344;2023-04-25T08:21:10;10.10;99.90
46364;DHT22;32071;49.036;9.344;2023-04-25T08:23:37;10.00;99.90
46364;DHT22;32071;49.036;9.344;2023-04-25T08:26:03;10.00;99.90
46364;DHT22;32071;49.036;9.344;2023-04-25T08:28:30;9.90;99.90
46364;DHT22;32071;49.036;9.344;2023-04-25T08:30:56;10.00;99.90
46364;DHT22;32071;49.036;9.344;2023-04-25T08:33:21;10.00;99.90
46364;DHT22;32071;49.036;9.344;2023-04-25T08:35:47;9.90;99.90
46364;DHT22;32071;49.036;9.344;2023-04-25T08:38:12;9.80;99.90
46364;DHT22;32071;49.036;9.344;2023-04-25T08:40:39;9.90;99.90
46364;DHT22;32071;49.036;9.344;2023-04-25T08:43:06;10.10;99.90
46364;DHT22;32071;49.036;9.344;2023-04-25T08:45:39;10.30;99.90
46364;DHT22;32071;49.036;9.344;2023-04-25T08:48:10;10.40;99.90
46364;DHT22;32071;49.036;9.344;2023-04-25T08:50:38;10.50;99.90
46364;DHT22;32071;49.036;9.344;2023-04-25T08:53:09;10.60;99.90
46364;DHT22;32071;49.036;9.344;2023-04-25T08:55:40;10.70;99.90
46364;DHT22;32071;49.036;9.344;2023-04-25T08:58:07;10.80;99.90
46364;DHT22;32071;49.036;9.344;2023-04-25T09:00:34;10.80;99.90
46364;DHT22;32071;49.036;9.344;2023-04-25T09:02:59;10.90;99.90
46364;DHT22;32071;49.036;9.344;2023-04-25T09:05:25;10.90;99.90
46364;DHT22;32071;49.036;9.344;2023-04-25T09:07:51;10.90;99.90
46364;DHT22;32071;49.036;9.344;2023-04-25T09:10:16;10.90;99.90
46364;DHT22;32071;49.036;9.344;2023-04-25T09:12:42;10.80;99.90
46364;DHT22;32071;49.036;9.344;2023-04-25T09:15:10;10.70;99.90
46364;DHT22;32071;49.036;9.344;2023-04-25T09:17:36;10.80;99.90
46364;DHT22;32071;49.036;9.344;2023-04-25T09:20:13;10.70;99.90
46364;DHT22;32071;49.036;9.344;2023-04-25T09:22:39;10.70;99.90
46364;DHT22;32071;49.036;9.344;2023-04-25T09:25:11;10.70;99.90
46364;DHT22;32071;49.036;9.344;2023-04-25T09:27:52;10.60;99.90
46364;DHT22;32071;49.036;9.344;2023-04-25T09:30:18;10.60;99.90
46364;DHT22;32071;49.036;9.344;2023-04-25T09:32:56;10.70;99.90
46364;DHT22;32071;49.036;9.344;2023-04-25T09:35:25;10.80;99.90
46364;DHT22;32071;49.036;9.344;2023-04-25T09:37:55;11.10;99.90
46364;DHT22;32071;49.036;9.344;2023-04-25T09:40:21;11.20;99.90
46364;DHT22;32071;49.036;9.344;2023-04-25T09:42:47;11.40;99.90
46364;DHT22;32071;49.036;9.344;2023-04-25T09:45:13;11.70;99.90
46364;DHT22;32071;49.036;9.344;2023-04-25T09:47:41;11.70;99.90
46364;DHT22;32071;49.036;9.344;2023-04-25T09:50:16;11.70;99.90
46364;DHT22;32071;49.036;9.344;2023-04-25T09:52:41;11.50;99.90
46364;DHT22;32071;49.036;9.344;2023-04-25T09:55:07;10.90;99.90
46364;DHT22;32071;49.036;9.344;2023-04-25T09:57:33;10.00;99.90
46364;DHT22;32071;49.036;9.344;2023-04-25T10:00:00;9.60;99.90
46364;DHT22;32071;49.036;9.344;2023-04-25T10:02:29;9.30;99.90
46364;DHT22;32071;49.036;9.344;2023-04-25T10:04:55;8.90;99.90
46364;DHT22;32071;49.036;9.344;2023-04-25T10:07:26;8.70;99.90
46364;DHT22;32071;49.036;9.344;2023-04-25T10:10:04;8.40;99.90
46364;DHT22;32071;49.036;9.344;2023-04-25T10:12:32;8.20;99.90
46364;DHT22;32071;49.036;9.344;2023-04-25T10:14:58;8.10;99.90
46364;DHT22;32071;49.036;9.344;2023-04-25T10:17:26;8.10;99.90
46364;DHT22;32071;49.036;9.344;2023-04-25T10:19:54;8.10;99.90
46364;DHT22;32071;49.036;9.344;2023-04-25T10:22:59;8.10;99.90
46364;DHT22;32071;49.036;9.344;2023-04-25T10:25:28;8.10;99.90
46364;DHT22;32071;49.036;9.344;2023-04-25T10:27:53;8.20;99.90
46364;DHT22;32071;49.036;9.344;2023-04-25T10:30:19;8.10;99.90
46364;DHT22;32071;49.036;9.344;2023-04-25T10:32:45;8.20;99.90
46364;DHT22;32071;49.036;9.344;2023-04-25T10:37:38;8.30;99.90
46364;DHT22;32071;49.036;9.344;2023-04-25T10:40:10;8.30;99.90
46364;DHT22;32071;49.036;9.344;2023-04-25T10:42:36;8.50;99.90
46364;DHT22;32071;49.036;9.344;2023-04-25T10:45:04;8.70;99.90
46364;DHT22;32071;49.036;9.344;2023-04-25T10:47:38;8.80;99.90
46364;DHT22;32071;49.036;9.344;2023-04-25T10:50:08;8.90;99.90
46364;DHT22;32071;49.036;9.344;2023-04-25T10:52:34;9.20;99.90
46364;DHT22;32071;49.036;9.344;2023-04-25T10:55:03;9.30;99.90
46364;DHT22;32071;49.036;9.344;2023-04-25T10:57:45;9.40;99.90
46364;DHT22;32071;49.036;9.344;2023-04-25T11:00:17;9.60;99.90
46364;DHT22;32071;49.036;9.344;2023-04-25T11:02:47;9.70;99.90
46364;DHT22;32071;49.036;9.344;2023-04-25T11:05:22;9.80;99.90
46364;DHT22;32071;49.036;9.344;2023-04-25T11:07:52;9.80;99.90
46364;DHT22;32071;49.036;9.344;2023-04-25T11:10:20;9.60;99.90
46364;DHT22;32071;49.036;9.344;2023-04-25T11:12:46;9.60;99.90
46364;DHT22;32071;49.036;9.344;2023-04-25T11:15:12;9.60;99.90
46364;DHT22;32071;49.036;9.344;2023-04-25T11:17:39;9.50;99.90
46364;DHT22;32071;49.036;9.344;2023-04-25T11:20:06;9.40;99.90
46364;DHT22;32071;49.036;9.344;2023-04-25T11:22:34;9.40;99.90
46364;DHT22;32071;49.036;9.344;2023-04-25T11:25:05;9.30;99.90
46364;DHT22;32071;49.036;9.344;2023-04-25T11:27:31;9.30;99.90
46364;DHT22;32071;49.036;9.344;2023-04-25T11:29:56;9.40;99.90
46364;DHT22;32071;49.036;9.344;2023-04-25T11:32:22;9.70;99.90
46364;DHT22;32071;49.036;9.344;2023-04-25T11:34:48;9.90;99.90
46364;DHT22;32071;49.036;9.344;2023-04-25T11:37:14;10.10;99.90
46364;DHT22;32071;49.036;9.344;2023-04-25T11:39:43;10.30;99.90
46364;DHT22;32071;49.036;9.344;2023-04-25T11:42:10;10.40;99.90
46364;DHT22;32071;49.036;9.344;2023-04-25T11:44:38;10.40;99.90
46364;DHT22;32071;49.036;9.344;2023-04-25T11:47:04;10.40;99.90
46364;DHT22;32071;49.036;9.344;2023-04-25T11:49:32;10.30;99.90
46364;DHT22;32071;49.036;9.344;2023-04-25T11:51:58;10.20;99.90
46364;DHT22;32071;49.036;9.344;2023-04-25T11:54:23;10.30;99.90
46364;DHT22;32071;49.036;9.344;2023-04-25T11:56:49;10.20;99.90
46364;DHT22;32071;49.036;9.344;2023-04-25T11:59:15;10.30;99.90
46364;DHT22;32071;49.036;9.344;2023-04-25T12:01:48;10.40;99.90
46364;DHT22;32071;49.036;9.344;2023-04-25T12:06:41;10.90;99.90
46364;DHT22;32071;49.036;9.344;2023-04-25T12:09:09;10.90;99.90
46364;DHT22;32071;49.036;9.344;2023-04-25T12:11:45;10.70;99.90
46364;DHT22;32071;49.036;9.344;2023-04-25T12:14:12;10.70;99.90
46364;DHT22;32071;49.036;9.344;2023-04-25T12:16:46;10.80;99.90
46364;DHT22;32071;49.036;9.344;2023-04-25T12:19:16;10.70;99.90
46364;DHT22;32071;49.036;9.344;2023-04-25T12:21:43;10.40;99.90
46364;DHT22;32071;49.036;9.344;2023-04-25T12:24:13;10.30;99.90
46364;DHT22;32071;49.036;9.344;2023-04-25T12:27:00;10.10;99.90
46364;DHT22;32071;49.036;9.344;2023-04-25T12:29:27;10.10;99.90
46364;DHT22;32071;49.036;9.344;2023-04-25T12:31:54;10.20;99.90
46364;DHT22;32071;49.036;9.344;2023-04-25T12:34:20;10.20;99.90
46364;DHT22;32071;49.036;9.344;2023-04-25T12:36:46;10.30;99.90
46364;DHT22;32071;49.036;9.344;2023-04-25T12:39:16;10.60;99.90
46364;DHT22;32071;49.036;9.344;2023-04-25T12:41:42;10.60;99.90
46364;DHT22;32071;49.036;9.344;2023-04-25T12:44:08;10.40;99.90
46364;DHT22;32071;49.036;9.344;2023-04-25T12:46:33;10.50;99.90
46364;DHT22;32071;49.036;9.344;2023-04-25T12:48:59;10.60;99.90
46364;DHT22;32071;49.036;9.344;2023-04-25T12:51:25;10.60;99.90
46364;DHT22;32071;49.036;9.344;2023-04-25T12:53:53;10.60;99.90
46364;DHT22;32071;49.036;9.344;2023-04-25T12:56:18;10.50;99.90
46364;DHT22;32071;49.036;9.344;2023-04-25T12:58:44;10.60;99.90
46364;DHT22;32071;49.036;9.344;2023-04-25T13:01:10;10.50;99.90
46364;DHT22;32071;49.036;9.344;2023-04-25T13:03:36;10.50;99.90
46364;DHT22;32071;49.036;9.344;2023-04-25T13:06:02;10.60;99.90
46364;DHT22;32071;49.036;9.344;2023-04-25T13:08:28;10.60;99.90
46364;DHT22;32071;49.036;9.344;2023-04-25T13:10:53;10.50;99.90
46364;DHT22;32071;49.036;9.344;2023-04-25T13:13:19;10.60;99.90
46364;DHT22;32071;49.036;9.344;2023-04-25T13:15:45;10.60;99.90
46364;DHT22;32071;49.036;9.344;2023-04-25T13:18:11;10.90;99.90
46364;DHT22;32071;49.036;9.344;2023-04-25T13:20:37;11.10;99.90
46364;DHT22;32071;49.036;9.344;2023-04-25T13:23:02;11.20;99.90
46364;DHT22;32071;49.036;9.344;2023-04-25T13:25:28;11.10;99.90
46364;DHT22;32071;49.036;9.344;2023-04-25T13:27:53;11.10;99.90
46364;DHT22;32071;49.036;9.344;2023-04-25T13:30:19;11.10;99.90
46364;DHT22;32071;49.036;9.344;2023-04-25T13:32:44;11.00;99.90
46364;DHT22;32071;49.036;9.344;2023-04-25T13:35:12;11.10;99.90
46364;DHT22;32071;49.036;9.344;2023-04-25T13:37:38;11.10;99.90
46364;DHT22;32071;49.036;9.344;2023-04-25T13:40:08;11.30;99.90
46364;DHT22;32071;49.036;9.344;2023-04-25T13:42:35;11.60;99.90
46364;DHT22;32071;49.036;9.344;2023-04-25T13:45:01;11.90;99.90
46364;DHT22;32071;49.036;9.344;2023-04-25T13:47:27;12.20;99.90
46364;DHT22;32071;49.036;9.344;2023-04-25T13:49:53;12.30;99.90
46364;DHT22;32071;49.036;9.344;2023-04-25T13:52:19;12.50;99.90
46364;DHT22;32071;49.036;9.344;2023-04-25T13:54:45;13.10;99.90
46364;DHT22;32071;49.036;9.344;2023-04-25T13:57:11;13.20;99.90
46364;DHT22;32071;49.036;9.344;2023-04-25T13:59:37;13.20;99.90
46364;DHT22;32071;49.036;9.344;2023-04-25T14:02:02;13.70;99.90
46364;DHT22;32071;49.036;9.344;2023-04-25T14:04:28;14.50;99.90
46364;DHT22;32071;49.036;9.344;2023-04-25T14:06:54;14.20;99.90
46364;DHT22;32071;49.036;9.344;2023-04-25T14:09:20;13.80;99.90
46364;DHT22;32071;49.036;9.344;2023-04-25T14:11:54;13.50;99.90
46364;DHT22;32071;49.036;9.344;2023-04-25T14:14:21;13.50;99.90
46364;DHT22;32071;49.036;9.344;2023-04-25T14:16:47;13.50;99.90
46364;DHT22;32071;49.036;9.344;2023-04-25T14:19:14;13.60;99.90
46364;DHT22;32071;49.036;9.344;2023-04-25T14:21:40;13.60;99.90
46364;DHT22;32071;49.036;9.344;2023-04-25T14:24:06;13.10;99.90
46364;DHT22;32071;49.036;9.344;2023-04-25T14:26:33;12.60;99.90
46364;DHT22;32071;49.036;9.344;2023-04-25T14:28:59;12.30;99.90
46364;DHT22;32071;49.036;9.344;2023-04-25T14:31:24;12.00;99.90
46364;DHT22;32071;49.036;9.344;2023-04-25T14:33:50;11.90;99.90
46364;DHT22;32071;49.036;9.344;2023-04-25T14:36:16;11.80;99.90
46364;DHT22;32071;49.036;9.344;2023-04-25T14:38:41;11.80;99.90
46364;DHT22;32071;49.036;9.344;2023-04-25T14:41:07;12.00;99.90
46364;DHT22;32071;49.036;9.344;2023-04-25T14:43:32;12.10;99.90
46364;DHT22;32071;49.036;9.344;2023-04-25T14:45:58;12.30;99.90
46364;DHT22;32071;49.036;9.344;2023-04-25T14:48:24;12.40;99.90
46364;DHT22;32071;49.036;9.344;2023-04-25T14:50:49;12.80;99.90
46364;DHT22;32071;49.036;9.344;2023-04-25T14:53:15;13.20;99.90
46364;DHT22;32071;49.036;9.344;2023-04-25T14:55:40;13.00;99.90
46364;DHT22;32071;49.036;9.344;2023-04-25T14:58:06;12.70;99.90
46364;DHT22;32071;49.036;9.344;2023-04-25T15:00:32;12.70;99.90
46364;DHT22;32071;49.036;9.344;2023-04-25T15:02:58;13.20;99.90
46364;DHT22;32071;49.036;9.344;2023-04-25T15:05:24;13.50;99.90
46364;DHT22;32071;49.036;9.344;2023-04-25T15:07:50;13.70;99.90
46364;DHT22;32071;49.036;9.344;2023-04-25T15:10:17;13.50;99.90
46364;DHT22;32071;49.036;9.344;2023-04-25T15:12:44;13.40;99.90
46364;DHT22;32071;49.036;9.344;2023-04-25T15:15:10;13.30;99.90
46364;DHT22;32071;49.036;9.344;2023-04-25T15:17:37;13.30;99.90
46364;DHT22;32071;49.036;9.344;2023-04-25T15:20:05;13.50;99.90
46364;DHT22;32071;49.036;9.344;2023-04-25T15:22:30;13.30;99.90
46364;DHT22;32071;49.036;9.344;2023-04-25T15:24:56;13.30;99.90
46364;DHT22;32071;49.036;9.344;2023-04-25T15:27:22;13.70;99.90
46364;DHT22;32071;49.036;9.344;2023-04-25T15:29:48;13.60;99.90
46364;DHT22;32071;49.036;9.344;2023-04-25T15:32:14;14.50;99.90
46364;DHT22;32071;49.036;9.344;2023-04-25T15:34:39;16.10;99.90
46364;DHT22;32071;49.036;9.344;2023-04-25T15:37:05;16.10;99.10
46364;DHT22;32071;49.036;9.344;2023-04-25T15:39:31;15.10;99.50
46364;DHT22;32071;49.036;9.344;2023-04-25T15:41:56;14.60;99.90